Time;durP1;ratioP1;P1;durP2;ratioP2;P2;SDS_P1;SDS_P2;PMS_P1;PMS_P2;Temp;Humidity;BMP_temperature;BMP_pressure;BME280_temperature;BME280_humidity;BME280_pressure;Samples;Min_cycle;Max_cycle;Signal;HPM_P1;HPM_P2
2023/04/16 00:01:06;;;;;;;8.48;1.50;;;;;;;11.66;86.18;98954.72;5092823;28;20028;-48
2023/04/16 00:03:32;;;;;;;4.65;1.20;;;;;;;11.71;86.71;98952.31;5094197;28;20031;-48
2023/04/16 00:05:58;;;;;;;9.95;1.45;;;;;;;11.68;86.00;98951.91;5094119;28;20486;-48
2023/04/16 00:08:23;;;;;;;5.28;1.25;;;;;;;11.72;86.82;98947.88;5094157;28;20028;-48
2023/04/16 00:10:50;;;;;;;3.05;1.40;;;;;;;11.75;87.00;98950.91;5094013;28;20020;-48
2023/04/16 00:13:16;;;;;;;31.02;2.63;;;;;;;11.67;86.81;98948.47;5092679;28;20078;-49
2023/04/16 00:15:41;;;;;;;21.55;2.55;;;;;;;11.72;87.16;98940.78;5093975;28;20425;-48
2023/04/16 00:18:07;;;;;;;5.70;2.72;;;;;;;11.79;86.23;98941.59;5093926;28;20066;-49
2023/04/16 00:20:33;;;;;;;8.63;1.67;;;;;;;11.79;86.07;98946.03;5109501;28;20060;-49
2023/04/16 00:22:58;;;;;;;7.13;1.75;;;;;;;11.82;85.94;98956.16;5093805;28;20028;-49
2023/04/16 00:25:24;;;;;;;5.90;1.70;;;;;;;11.88;85.51;98951.94;5093783;28;20424;-49
2023/04/16 00:27:50;;;;;;;3.95;1.15;;;;;;;11.87;84.41;98950.28;5109413;28;20115;-49
2023/04/16 00:30:15;;;;;;;9.98;1.88;;;;;;;11.73;83.70;98944.22;5092269;28;20051;-49
2023/04/16 00:32:41;;;;;;;15.88;3.10;;;;;;;11.63;83.50;98947.25;5093630;28;20106;-46
2023/04/16 00:35:07;;;;;;;6.10;1.65;;;;;;;11.67;82.71;98942.38;5093575;28;20024;-49
2023/04/16 00:37:33;;;;;;;6.57;1.67;;;;;;;11.55;82.77;98950.06;5093532;28;20443;-49
2023/04/16 00:40:00;;;;;;;8.20;1.85;;;;;;;11.51;83.63;98944.41;5093365;28;20024;-48
2023/04/16 00:42:26;;;;;;;5.30;1.55;;;;;;;11.59;82.98;98946.03;5109055;28;20048;-49
2023/04/16 00:44:51;;;;;;;6.95;2.25;;;;;;;11.64;83.10;98950.69;5109109;28;20024;-48
2023/04/16 00:47:19;;;;;;;6.65;2.20;;;;;;;11.76;83.28;98956.97;5093336;28;20502;-49
2023/04/16 00:49:46;;;;;;;8.30;1.70;;;;;;;11.90;83.28;98960.44;5093259;28;20397;-49
2023/04/16 00:52:11;;;;;;;7.60;1.45;;;;;;;11.97;83.07;98956.81;5108856;28;20032;-49
2023/04/16 00:54:38;;;;;;;12.50;1.80;;;;;;;12.03;81.11;98955.19;5108846;28;20061;-49
2023/04/16 00:57:05;;;;;;;8.68;1.98;;;;;;;12.11;81.15;98964.69;5108843;28;20024;-46
2023/04/16 00:59:31;;;;;;;7.53;2.00;;;;;;;12.14;80.34;98965.09;5092005;28;20028;-47
2023/04/16 01:01:57;;;;;;;4.60;1.73;;;;;;;12.17;79.65;98964.69;5093022;28;20030;-46
2023/04/16 01:04:23;;;;;;;7.70;1.85;;;;;;;12.19;79.96;98969.75;5108684;28;20027;-46
2023/04/16 01:06:48;;;;;;;6.32;1.48;;;;;;;12.18;80.37;98971.56;5108637;28;20036;-46
2023/04/16 01:09:14;;;;;;;4.07;1.70;;;;;;;12.18;80.23;98970.78;5092935;28;20036;-47
2023/04/16 01:11:39;;;;;;;16.42;11.50;;;;;;;12.24;80.38;98967.31;5092289;28;20028;-47
2023/04/16 01:14:05;;;;;;;19.27;4.80;;;;;;;12.28;79.51;98975.63;5091585;28;20039;-47
2023/04/16 01:16:31;;;;;;;18.98;10.25;;;;;;;12.29;79.39;98974.59;5092709;28;20028;-47
2023/04/16 01:18:57;;;;;;;9.98;3.05;;;;;;;12.31;79.35;98970.75;5092738;28;20085;-47
2023/04/16 01:21:22;;;;;;;22.13;7.18;;;;;;;12.32;78.61;98967.09;5092636;28;20549;-46
2023/04/16 01:23:48;;;;;;;3.20;1.33;;;;;;;12.38;78.15;98971.56;5108374;28;20081;-47
2023/04/16 01:26:14;;;;;;;11.80;4.32;;;;;;;12.19;78.27;98967.94;5091424;28;20036;-46
2023/04/16 01:28:40;;;;;;;5.55;1.80;;;;;;;12.12;79.06;98975.00;5092466;28;20032;-46
2023/04/16 01:31:05;;;;;;;11.63;2.17;;;;;;;12.21;79.74;98977.44;5092329;28;20131;-46
2023/04/16 01:33:31;;;;;;;15.20;2.47;;;;;;;12.33;80.30;98973.16;5092585;28;20452;-47
2023/04/16 01:35:56;;;;;;;9.50;2.08;;;;;;;12.44;80.06;98975.19;5092424;28;20410;-46
2023/04/16 01:38:22;;;;;;;4.07;1.60;;;;;;;12.52;79.46;98968.91;5092473;28;20035;-46
2023/04/16 01:40:48;;;;;;;4.07;1.60;;;;;;;12.59;79.71;98977.59;5092348;28;20025;-47
2023/04/16 01:43:14;;;;;;;4.55;2.35;;;;;;;12.59;79.56;98982.84;5091095;28;20490;-46
2023/04/16 01:45:39;;;;;;;11.40;2.30;;;;;;;12.62;79.37;98981.66;5092294;28;20024;-46
2023/04/16 01:48:05;;;;;;;4.68;1.98;;;;;;;12.62;78.10;98981.66;5107955;28;20036;-47
2023/04/16 01:50:31;;;;;;;10.23;2.75;;;;;;;12.55;77.55;98981.66;5092464;28;20055;-46
2023/04/16 01:52:57;;;;;;;17.42;2.70;;;;;;;12.48;76.40;98986.94;5107847;28;20032;-46
2023/04/16 01:55:22;;;;;;;12.18;2.58;;;;;;;12.33;75.22;98986.31;5107813;28;20028;-46
2023/04/16 01:57:48;;;;;;;5.90;1.90;;;;;;;12.06;74.99;98983.72;5092163;28;20046;-46
2023/04/16 02:00:14;;;;;;;16.50;2.90;;;;;;;11.77;74.71;98983.06;5092032;28;20032;-47
2023/04/16 02:02:40;;;;;;;9.07;2.08;;;;;;;11.52;75.48;98980.19;5092083;28;20034;-47
2023/04/16 02:05:05;;;;;;;11.48;2.92;;;;;;;11.20;75.54;98981.72;5073905;28;20046;-46
2023/04/16 02:07:31;;;;;;;7.25;2.25;;;;;;;11.05;76.64;98975.81;5092091;28;20028;-49
2023/04/16 02:09:57;;;;;;;8.27;2.90;;;;;;;11.01;77.21;98980.63;5092016;28;20024;-49
2023/04/16 02:12:23;;;;;;;11.10;3.05;;;;;;;11.05;77.03;98973.19;5092007;28;20035;-49
2023/04/16 02:14:48;;;;;;;15.68;2.75;;;;;;;11.11;76.75;98973.19;5092028;28;20032;-49
2023/04/16 02:17:14;;;;;;;11.70;2.85;;;;;;;11.13;76.68;98979.06;5091846;28;20138;-49
2023/04/16 02:19:40;;;;;;;9.88;2.95;;;;;;;11.19;76.39;98977.47;5074046;28;20042;-49
2023/04/16 02:22:06;;;;;;;7.68;3.03;;;;;;;11.24;76.18;98972.44;5091874;28;20103;-49
2023/04/16 02:24:31;;;;;;;8.70;2.83;;;;;;;11.23;75.95;98968.19;5110824;28;20028;-49
2023/04/16 02:26:57;;;;;;;10.05;3.17;;;;;;;11.24;76.14;98972.44;5096049;28;20349;-49
2023/04/16 02:29:23;;;;;;;6.20;3.38;;;;;;;11.19;75.26;98967.78;5111492;28;20052;-49
2023/04/16 02:31:48;;;;;;;11.23;3.20;;;;;;;11.12;75.66;98964.31;5095934;28;20054;-49
2023/04/16 02:34:14;;;;;;;20.30;4.38;;;;;;;11.10;75.34;98971.56;5095957;28;20039;-49
2023/04/16 02:36:41;;;;;;;30.02;4.57;;;;;;;10.99;75.13;98964.28;5094540;28;20049;-49
2023/04/16 02:39:06;;;;;;;8.35;3.60;;;;;;;10.97;75.34;98964.47;5111389;28;20024;-49
2023/04/16 02:41:32;;;;;;;9.20;3.60;;;;;;;10.97;75.43;98969.72;5111447;28;20066;-48
2023/04/16 02:43:57;;;;;;;10.52;3.22;;;;;;;11.02;75.31;98960.44;5111449;28;20032;-49
2023/04/16 02:46:23;;;;;;;6.57;2.85;;;;;;;11.14;75.37;98964.91;5095672;28;20406;-49
2023/04/16 02:48:49;;;;;;;5.32;3.42;;;;;;;11.07;74.29;98958.03;5077435;28;20476;-49
2023/04/16 02:51:14;;;;;;;15.23;3.67;;;;;;;10.92;74.29;98974.72;5095552;28;20030;-49
2023/04/16 02:53:44;;;;;;;16.58;4.03;;;;;;;10.81;74.71;98958.75;5111201;28;20032;-49
2023/04/16 02:56:11;;;;;;;13.85;4.45;;;;;;;10.72;74.72;98966.75;5095404;28;20064;-48
2023/04/16 02:58:37;;;;;;;12.60;4.40;;;;;;;10.62;73.99;98961.03;5111146;28;20493;-48
2023/04/16 03:01:02;;;;;;;9.10;4.55;;;;;;;10.35;74.29;98962.72;5111009;28;20030;-48
2023/04/16 03:03:28;;;;;;;12.07;5.63;;;;;;;10.15;75.09;98965.16;5095380;28;20027;-48
2023/04/16 03:05:54;;;;;;;8.25;4.32;;;;;;;10.01;75.69;98969.50;5095327;28;20099;-48
2023/04/16 03:08:20;;;;;;;7.28;4.50;;;;;;;9.94;76.83;98979.94;5095203;28;20444;-49
2023/04/16 03:10:45;;;;;;;11.70;4.30;;;;;;;9.93;76.57;98972.25;5095182;28;20028;-49
2023/04/16 03:13:11;;;;;;;12.45;4.15;;;;;;;9.84;76.79;98966.34;5095219;28;20032;-49
2023/04/16 03:15:37;;;;;;;21.77;5.82;;;;;;;9.71;77.18;98977.50;5095367;28;20111;-48
2023/04/16 03:18:03;;;;;;;20.17;6.13;;;;;;;9.56;77.51;98959.22;5095111;28;20051;-48
2023/04/16 03:20:28;;;;;;;14.05;5.00;;;;;;;9.56;78.10;98964.47;5094956;28;20039;-48
2023/04/16 03:22:54;;;;;;;12.25;5.70;;;;;;;9.53;78.38;98956.16;5095005;28;20043;-48
2023/04/16 03:25:20;;;;;;;11.52;4.80;;;;;;;9.57;78.49;98962.66;5095265;28;20511;-48
2023/04/16 03:27:45;;;;;;;12.13;4.85;;;;;;;9.62;78.88;98960.28;5110893;28;20040;-48
2023/04/16 03:30:12;;;;;;;10.20;4.65;;;;;;;9.75;78.90;98962.22;5094646;28;20055;-48
2023/04/16 03:32:38;;;;;;;13.57;5.85;;;;;;;9.76;78.00;98964.66;5094876;28;20481;-49
2023/04/16 03:35:07;;;;;;;39.45;6.78;;;;;;;9.74;78.00;98961.41;5094241;28;20043;-49
2023/04/16 03:37:33;;;;;;;16.13;5.00;;;;;;;9.82;78.20;98955.22;5110416;28;20035;-49
2023/04/16 03:39:59;;;;;;;21.98;5.82;;;;;;;9.91;77.96;98963.75;5094660;28;20028;-49
2023/04/16 03:42:25;;;;;;;13.02;5.25;;;;;;;9.98;77.70;98959.41;5094592;28;20055;-49
2023/04/16 03:44:52;;;;;;;7.90;4.70;;;;;;;9.98;77.12;98954.97;5094895;28;20024;-49
2023/04/16 03:47:18;;;;;;;7.57;4.85;;;;;;;10.03;77.15;98948.34;5094401;28;20032;-49
2023/04/16 03:49:44;;;;;;;10.80;5.25;;;;;;;10.05;76.07;98949.75;5094470;28;20024;-49
2023/04/16 03:52:10;;;;;;;8.10;5.15;;;;;;;10.02;76.64;98942.28;5094424;28;20156;-49
2023/04/16 03:54:35;;;;;;;21.85;5.43;;;;;;;10.03;76.13;98956.19;5076243;28;20032;-49
2023/04/16 03:57:01;;;;;;;15.40;5.15;;;;;;;9.97;75.73;98955.94;5094319;28;20440;-49
2023/04/16 03:59:27;;;;;;;9.38;5.25;;;;;;;9.96;76.33;98962.19;5109919;28;20028;-49
2023/04/16 04:01:53;;;;;;;9.55;5.70;;;;;;;9.90;76.13;98959.50;5094268;28;20416;-49
2023/04/16 04:04:18;;;;;;;7.45;5.45;;;;;;;9.85;76.09;98962.69;5094231;28;20047;-49
2023/04/16 04:06:45;;;;;;;8.35;4.95;;;;;;;9.89;76.39;98965.75;5094136;28;20020;-49
2023/04/16 04:09:12;;;;;;;8.43;5.45;;;;;;;9.97;75.85;98971.66;5094351;28;20035;-49
2023/04/16 04:11:38;;;;;;;9.85;5.55;;;;;;;9.96;75.91;98967.44;5109731;28;20028;-49
2023/04/16 04:14:06;;;;;;;13.88;5.80;;;;;;;10.06;75.66;98969.75;5094062;28;20043;-49
2023/04/16 04:16:32;;;;;;;18.25;6.18;;;;;;;10.07;75.54;98967.94;5093946;28;20016;-49
2023/04/16 04:18:59;;;;;;;11.00;6.75;;;;;;;10.04;75.29;98973.53;5093960;28;20508;-49
2023/04/16 04:21:26;;;;;;;9.90;5.82;;;;;;;10.04;74.70;98970.91;5093743;28;20028;-49
2023/04/16 04:23:51;;;;;;;9.68;5.82;;;;;;;10.05;74.76;98972.56;5094118;28;20409;-48
2023/04/16 04:26:17;;;;;;;9.30;6.15;;;;;;;10.08;74.60;98975.59;5109442;28;20024;-49
2023/04/16 04:28:43;;;;;;;12.85;6.88;;;;;;;9.95;74.21;98980.72;5109382;28;20405;-49
2023/04/16 04:31:09;;;;;;;15.60;6.75;;;;;;;9.87;74.49;98979.06;5093370;28;20527;-49
2023/04/16 04:33:34;;;;;;;19.90;6.90;;;;;;;9.82;74.75;98984.06;5093638;28;20046;-49
2023/04/16 04:36:00;;;;;;;13.25;7.18;;;;;;;9.75;74.71;98985.78;5093636;28;20027;-49
2023/04/16 04:38:26;;;;;;;19.70;7.70;;;;;;;9.56;74.90;98995.09;5109243;28;20023;-49
2023/04/16 04:40:52;;;;;;;18.48;7.53;;;;;;;9.44;75.06;99000.00;5093370;28;20119;-48
2023/04/16 04:43:21;;;;;;;15.25;7.60;;;;;;;9.34;75.67;98995.06;5093419;28;20031;-49
2023/04/16 04:45:47;;;;;;;11.82;7.38;;;;;;;9.26;75.77;99003.03;5091549;28;20028;-49
2023/04/16 04:48:14;;;;;;;10.57;6.72;;;;;;;9.16;76.05;99008.56;5093360;28;20028;-49
2023/04/16 04:50:40;;;;;;;13.80;8.60;;;;;;;9.10;76.31;99005.84;5093464;28;20028;-49
2023/04/16 04:53:09;;;;;;;14.38;9.20;;;;;;;9.16;76.63;98997.28;5091876;28;20024;-49
2023/04/16 04:55:38;;;;;;;19.60;7.82;;;;;;;9.24;76.35;98994.53;5093427;28;20153;-49
2023/04/16 04:58:05;;;;;;;12.10;8.25;;;;;;;9.30;76.03;99003.47;5108881;28;20024;-49
2023/04/16 05:00:32;;;;;;;12.32;8.38;;;;;;;9.26;76.00;99002.22;5108732;28;20028;-49
2023/04/16 05:03:02;;;;;;;12.75;7.55;;;;;;;9.33;75.93;99003.91;5108751;28;20401;-49
2023/04/16 05:05:27;;;;;;;13.32;7.03;;;;;;;9.36;75.45;98995.69;5093342;28;20023;-49
2023/04/16 05:07:53;;;;;;;12.43;7.88;;;;;;;9.40;75.01;98999.56;5092990;28;20077;-49
2023/04/16 05:10:19;;;;;;;10.32;8.10;;;;;;;9.36;75.03;98995.69;5091559;28;20031;-50
2023/04/16 05:12:48;;;;;;;14.20;7.20;;;;;;;9.43;75.50;99008.03;5092900;28;20036;-49
2023/04/16 05:15:14;;;;;;;18.20;7.63;;;;;;;9.59;75.26;99007.81;5108600;28;20034;-49
2023/04/16 05:17:40;;;;;;;12.05;7.70;;;;;;;9.68;74.81;99009.34;5092843;28;20076;-49
2023/04/16 05:20:10;;;;;;;16.88;8.05;;;;;;;9.75;74.54;99007.56;5092666;28;20028;-48
2023/04/16 05:22:36;;;;;;;17.75;8.00;;;;;;;9.85;74.34;99011.69;5108649;28;20493;-49
2023/04/16 05:25:02;;;;;;;9.05;6.38;;;;;;;9.95;73.79;99012.19;5108304;28;20032;-49
2023/04/16 05:27:28;;;;;;;18.40;7.93;;;;;;;10.02;73.71;99018.31;5091382;28;20024;-49
2023/04/16 05:29:53;;;;;;;18.67;8.05;;;;;;;10.06;73.10;99032.69;5108063;28;20056;-49
2023/04/16 05:32:19;;;;;;;16.00;7.75;;;;;;;10.05;72.83;99027.63;5091287;28;20062;-49
2023/04/16 05:34:45;;;;;;;31.30;9.40;;;;;;;9.97;72.44;99031.97;5092487;28;20039;-49
2023/04/16 05:37:10;;;;;;;27.02;8.18;;;;;;;10.03;73.16;99029.63;5092460;28;20035;-49
2023/04/16 05:39:36;;;;;;;39.40;8.90;;;;;;;10.09;72.45;99040.16;5092311;28;20512;-49
2023/04/16 05:42:02;;;;;;;40.80;8.48;;;;;;;10.15;72.36;99041.22;5108066;28;20539;-49
2023/04/16 05:44:27;;;;;;;33.85;10.55;;;;;;;10.26;72.42;99037.25;5091020;28;20042;-49
2023/04/16 05:46:53;;;;;;;35.53;8.93;;;;;;;10.29;71.51;99039.53;5090903;28;20036;-49
2023/04/16 05:49:19;;;;;;;44.50;9.48;;;;;;;10.27;71.50;99044.16;5092549;28;20028;-49
2023/04/16 05:51:44;;;;;;;40.30;8.50;;;;;;;10.38;71.76;99048.88;5092207;28;20059;-49
2023/04/16 05:54:10;;;;;;;46.25;9.82;;;;;;;10.43;71.07;99046.53;5092199;28;20028;-49
2023/04/16 05:56:36;;;;;;;32.50;9.88;;;;;;;10.42;70.93;99047.50;5107681;28;20036;-49
2023/04/16 05:59:01;;;;;;;47.22;10.35;;;;;;;10.43;70.96;99050.97;5107763;28;20081;-49
2023/04/16 06:01:27;;;;;;;25.30;7.25;;;;;;;10.40;70.43;99046.88;5091993;28;20371;-49
2023/04/16 06:03:53;;;;;;;21.55;8.43;;;;;;;10.34;70.20;99058.16;5092095;28;20028;-49
2023/04/16 06:06:18;;;;;;;62.78;10.77;;;;;;;10.37;70.58;99055.16;5092033;28;20508;-49
2023/04/16 06:08:44;;;;;;;45.63;8.40;;;;;;;10.46;69.94;99061.06;5091950;28;20028;-49
2023/04/16 06:11:09;;;;;;;20.92;7.43;;;;;;;10.55;69.39;99066.00;5107671;28;20024;-49
2023/04/16 06:13:36;;;;;;;42.67;9.05;;;;;;;10.70;69.29;99072.94;5107536;28;20043;-49
2023/04/16 06:16:01;;;;;;;36.58;9.48;;;;;;;10.78;68.87;99073.63;5107859;28;20028;-49
2023/04/16 06:18:27;;;;;;;35.97;8.18;;;;;;;10.82;68.53;99068.00;5107547;28;20039;-49
2023/04/16 06:20:53;;;;;;;32.35;8.73;;;;;;;10.80;68.10;99068.16;5090548;28;20065;-49
2023/04/16 06:23:18;;;;;;;14.60;6.80;;;;;;;10.78;67.95;99078.06;5090578;28;20072;-49
2023/04/16 06:25:44;;;;;;;42.35;8.00;;;;;;;10.83;67.80;99065.19;5090474;28;20409;-49
2023/04/16 06:28:10;;;;;;;15.18;7.38;;;;;;;10.95;68.01;99071.50;5107507;28;20485;-49
2023/04/16 06:30:35;;;;;;;18.92;7.28;;;;;;;11.11;67.25;99070.38;5091706;28;20040;-49
2023/04/16 06:33:01;;;;;;;41.28;8.57;;;;;;;11.37;67.14;99074.97;5107407;28;20032;-49
2023/04/16 06:35:27;;;;;;;56.35;9.90;;;;;;;11.58;65.74;99075.84;5107404;28;20119;-49
2023/04/16 06:37:52;;;;;;;30.25;8.80;;;;;;;11.81;64.89;99067.59;5091753;28;20031;-49
2023/04/16 06:40:18;;;;;;;26.13;7.50;;;;;;;12.06;64.28;99075.78;5091585;28;20107;-49
2023/04/16 06:42:44;;;;;;;15.20;7.65;;;;;;;12.26;63.88;99062.66;5091717;28;20156;-49
2023/04/16 06:45:10;;;;;;;20.85;7.43;;;;;;;12.41;63.17;99065.09;5091686;28;20089;-50
2023/04/16 06:47:36;;;;;;;21.60;7.63;;;;;;;12.54;62.48;99070.34;5107251;28;20122;-49
2023/04/16 06:50:01;;;;;;;25.33;7.35;;;;;;;12.64;61.80;99069.94;5091621;28;20108;-49
2023/04/16 06:52:28;;;;;;;18.15;6.68;;;;;;;12.73;61.09;99063.44;5091571;28;20052;-47
2023/04/16 06:54:54;;;;;;;64.63;10.75;;;;;;;12.81;60.30;99069.53;5107289;28;20114;-46
2023/04/16 06:57:19;;;;;;;48.88;8.57;;;;;;;12.91;59.77;99073.34;5091796;28;20107;-46
2023/04/16 06:59:45;;;;;;;23.27;7.10;;;;;;;12.95;59.56;99064.00;5091799;28;20085;-47
2023/04/16 07:02:11;;;;;;;20.13;7.10;;;;;;;13.27;58.81;99072.03;5107228;28;20107;-47
2023/04/16 07:04:36;;;;;;;34.35;7.55;;;;;;;13.69;57.86;99077.78;5091636;28;20028;-46
2023/04/16 07:07:02;;;;;;;28.70;9.52;;;;;;;13.99;56.89;99082.47;5090213;28;20032;-46
2023/04/16 07:09:28;;;;;;;31.55;12.20;;;;;;;14.12;56.48;99082.38;5092780;28;20120;-47
2023/04/16 07:11:54;;;;;;;32.00;16.10;;;;;;;14.15;55.81;99089.88;5093900;28;20051;-47
2023/04/16 07:14:19;;;;;;;61.95;10.40;;;;;;;13.94;56.00;99085.78;5093900;28;20028;-47
2023/04/16 07:16:45;;;;;;;31.67;7.95;;;;;;;13.83;56.40;99101.47;5093790;28;20062;-47
2023/04/16 07:19:11;;;;;;;79.15;9.75;;;;;;;13.59;56.82;99093.25;5110984;28;20413;-47
2023/04/16 07:21:36;;;;;;;31.50;7.80;;;;;;;13.46;57.52;99101.19;5110651;28;20062;-47
2023/04/16 07:24:02;;;;;;;16.08;7.68;;;;;;;13.44;57.46;99103.22;5095312;28;20085;-46
2023/04/16 07:26:28;;;;;;;21.88;6.70;;;;;;;13.44;57.04;99101.44;5110709;28;20031;-46
2023/04/16 07:28:53;;;;;;;24.92;7.93;;;;;;;13.42;56.77;99108.72;5110676;28;20024;-46
2023/04/16 07:31:19;;;;;;;17.30;7.43;;;;;;;13.42;56.42;99102.63;5094703;28;20055;-46
2023/04/16 07:33:45;;;;;;;59.67;8.38;;;;;;;13.42;56.75;99106.09;5094812;28;20164;-46
2023/04/16 07:36:11;;;;;;;75.30;11.00;;;;;;;13.51;56.78;99099.56;5110514;28;20028;-46
2023/04/16 07:38:36;;;;;;;37.38;8.88;;;;;;;13.60;56.21;99097.47;5093477;28;20375;-46
2023/04/16 07:41:02;;;;;;;34.75;7.60;;;;;;;13.71;56.12;99096.84;5110253;28;20036;-46
2023/04/16 07:43:28;;;;;;;21.42;7.53;;;;;;;13.84;55.63;99095.16;5094646;28;20039;-46
2023/04/16 07:45:53;;;;;;;20.60;6.60;;;;;;;13.97;55.13;99097.72;5110333;28;20028;-46
2023/04/16 07:48:20;;;;;;;18.23;6.97;;;;;;;13.98;53.59;99091.41;5093247;28;20028;-46
2023/04/16 07:50:46;;;;;;;21.08;7.07;;;;;;;13.95;54.28;99099.75;5110180;28;20036;-46
2023/04/16 07:53:11;;;;;;;25.00;7.80;;;;;;;14.21;54.13;99093.50;5094506;28;20028;-47
2023/04/16 07:55:37;;;;;;;55.78;9.05;;;;;;;15.65;52.60;99093.34;5110121;28;20050;-46
2023/04/16 07:58:03;;;;;;;24.70;7.10;;;;;;;17.34;48.02;99089.47;5094359;28;20051;-46
2023/04/16 08:00:28;;;;;;;18.05;6.25;;;;;;;17.88;44.18;99091.84;5109812;28;20036;-46
2023/04/16 08:02:54;;;;;;;20.85;7.63;;;;;;;17.45;44.21;99092.31;5094276;28;20436;-46
2023/04/16 08:05:20;;;;;;;12.25;5.72;;;;;;;16.84;45.29;99091.81;5092900;28;20161;-46
2023/04/16 08:07:45;;;;;;;19.95;5.95;;;;;;;16.38;46.66;99096.84;5094205;28;20591;-46
2023/04/16 08:10:11;;;;;;;16.90;6.50;;;;;;;16.00;47.14;99100.66;5094336;28;20069;-47
2023/04/16 08:12:37;;;;;;;19.50;6.93;;;;;;;15.81;48.00;99102.53;5092883;28;20032;-46
2023/04/16 08:15:04;;;;;;;32.92;7.32;;;;;;;15.68;48.04;99108.78;5092706;28;20058;-46
2023/04/16 08:17:30;;;;;;;34.42;7.10;;;;;;;15.39;48.63;99110.34;5109670;28;20032;-47
2023/04/16 08:19:55;;;;;;;27.20;6.80;;;;;;;15.24;48.61;99115.19;5109571;28;20042;-47
2023/04/16 08:22:21;;;;;;;24.80;6.45;;;;;;;15.06;49.45;99113.34;5094124;28;20055;-47
2023/04/16 08:24:47;;;;;;;22.40;6.15;;;;;;;15.03;49.99;99119.88;5093837;28;20032;-47
2023/04/16 08:27:12;;;;;;;15.65;6.10;;;;;;;15.20;49.82;99109.53;5093800;28;20078;-46
2023/04/16 08:29:38;;;;;;;17.75;6.15;;;;;;;15.24;49.13;99126.59;5109290;28;20044;-46
2023/04/16 08:32:04;;;;;;;10.55;6.00;;;;;;;15.17;48.67;99129.31;5109423;28;20032;-47
2023/04/16 08:34:30;;;;;;;26.20;7.68;;;;;;;15.13;48.78;99119.38;5093919;28;20503;-46
2023/04/16 08:36:56;;;;;;;43.95;8.45;;;;;;;15.20;48.90;99133.34;5109276;28;20024;-47
2023/04/16 08:39:21;;;;;;;34.65;6.90;;;;;;;15.20;49.21;99125.41;5092194;28;20031;-46
2023/04/16 08:41:47;;;;;;;21.13;6.95;;;;;;;15.20;48.61;99122.75;5092285;28;20032;-46
2023/04/16 08:44:20;;;;;;;14.23;6.18;;;;;;;15.17;48.76;99121.38;5093444;28;20024;-47
2023/04/16 08:46:46;;;;;;;10.98;5.82;;;;;;;15.05;47.88;99127.59;5093380;28;20111;-46
2023/04/16 08:49:18;;;;;;;8.20;5.75;;;;;;;14.74;48.60;99142.50;5093408;28;20149;-46
2023/04/16 08:51:50;;;;;;;16.40;6.55;;;;;;;14.43;49.91;99141.50;5093344;28;20031;-46
2023/04/16 08:54:30;;;;;;;22.55;6.47;;;;;;;14.42;50.29;99145.13;5092340;28;20036;-46
2023/04/16 08:56:58;;;;;;;16.20;6.55;;;;;;;14.34;49.95;99140.91;5093233;28;20035;-46
2023/04/16 08:59:25;;;;;;;27.52;7.30;;;;;;;14.05;50.99;99152.88;5093159;28;20065;-46
2023/04/16 09:01:52;;;;;;;21.85;6.57;;;;;;;13.93;51.56;99154.56;5093190;28;20401;-47
2023/04/16 09:04:18;;;;;;;18.85;7.28;;;;;;;13.75;51.93;99153.44;5093051;28;20447;-46
2023/04/16 09:06:46;;;;;;;24.17;7.60;;;;;;;13.62;52.36;99161.38;5091887;28;20085;-46
2023/04/16 09:09:13;;;;;;;17.15;6.35;;;;;;;13.56;52.80;99164.84;5091753;28;20443;-46
2023/04/16 09:11:39;;;;;;;12.02;6.00;;;;;;;13.58;52.97;99154.91;5093243;28;20028;-46
2023/04/16 09:14:09;;;;;;;27.35;6.05;;;;;;;13.69;52.95;99162.19;5108525;28;20379;-46
2023/04/16 09:16:35;;;;;;;31.33;7.40;;;;;;;13.83;52.03;99157.66;5092888;28;20020;-46
2023/04/16 09:19:01;;;;;;;26.98;7.18;;;;;;;13.93;51.88;99162.50;5108465;28;20036;-47
2023/04/16 09:21:26;;;;;;;16.52;6.03;;;;;;;13.96;51.76;99162.88;5092917;28;20028;-46
2023/04/16 09:23:52;;;;;;;15.38;5.63;;;;;;;13.98;51.99;99174.03;5092699;28;20516;-46
2023/04/16 09:26:19;;;;;;;12.40;5.75;;;;;;;13.95;51.64;99161.25;5108278;28;20077;-46
2023/04/16 09:28:47;;;;;;;10.57;6.50;;;;;;;13.84;51.71;99156.63;5108291;28;20556;-46
2023/04/16 09:31:15;;;;;;;10.57;6.28;;;;;;;13.83;51.67;99168.22;5108081;28;20040;-46
2023/04/16 09:33:41;;;;;;;9.38;5.43;;;;;;;13.89;51.06;99158.66;5092113;28;20052;-46
2023/04/16 09:36:07;;;;;;;18.73;6.07;;;;;;;13.93;51.63;99163.28;5092467;28;20053;-46
2023/04/16 09:38:50;;;;;;;10.15;5.72;;;;;;;14.16;51.11;99164.59;5108157;28;20047;-46
2023/04/16 09:41:16;;;;;;;14.52;5.45;;;;;;;14.40;50.26;99157.75;5092645;28;20111;-46
2023/04/16 09:43:53;;;;;;;13.68;5.70;;;;;;;14.57;49.78;99164.16;5092435;28;20433;-46
2023/04/16 09:46:19;;;;;;;11.88;5.45;;;;;;;14.62;49.82;99160.06;5092330;28;20059;-46
2023/04/16 09:48:45;;;;;;;9.05;5.03;;;;;;;14.64;49.29;99148.25;5107950;28;20059;-46
2023/04/16 09:51:11;;;;;;;10.95;5.50;;;;;;;14.54;49.09;99159.28;5092200;28;20424;-46
2023/04/16 09:53:38;;;;;;;11.43;6.03;;;;;;;14.52;49.25;99166.59;5107886;28;20031;-46
2023/04/16 09:56:07;;;;;;;13.45;5.90;;;;;;;14.51;49.16;99164.19;5092187;28;20052;-46
2023/04/16 09:58:36;;;;;;;14.02;5.88;;;;;;;14.52;49.64;99160.53;5107841;28;20058;-46
2023/04/16 10:01:10;;;;;;;13.88;5.47;;;;;;;14.68;49.17;99164.50;5107680;28;20566;-46
2023/04/16 10:03:37;;;;;;;19.92;5.88;;;;;;;14.80;48.64;99168.06;5092185;28;20494;-46
2023/04/16 10:06:12;;;;;;;13.70;5.88;;;;;;;14.94;48.51;99166.13;5107763;28;20081;-46
2023/04/16 10:08:43;;;;;;;15.57;5.60;;;;;;;15.17;48.24;99168.13;5092077;28;20573;-46
2023/04/16 10:11:10;;;;;;;14.05;5.70;;;;;;;15.35;48.40;99165.53;5091996;28;20478;-46
2023/04/16 10:13:35;;;;;;;13.00;5.65;;;;;;;15.31;47.50;99164.34;5091921;28;20054;-46
2023/04/16 10:16:02;;;;;;;22.65;6.93;;;;;;;14.97;48.43;99165.69;5107530;28;20036;-46
2023/04/16 10:18:28;;;;;;;23.92;5.97;;;;;;;14.92;48.92;99166.31;5092000;28;20079;-46
2023/04/16 10:20:54;;;;;;;24.58;6.85;;;;;;;15.02;49.23;99165.84;5107500;28;20031;-47
2023/04/16 10:23:23;;;;;;;47.72;8.93;;;;;;;15.00;48.90;99165.25;5090569;28;20032;-46
2023/04/16 10:25:49;;;;;;;27.80;6.82;;;;;;;14.97;49.55;99166.50;5107508;28;20032;-46
2023/04/16 10:28:15;;;;;;;24.05;6.53;;;;;;;15.15;49.04;99149.88;5107461;28;20397;-47
2023/04/16 10:30:51;;;;;;;16.00;5.68;;;;;;;15.14;47.20;99158.81;5107275;28;20040;-46
2023/04/16 10:33:22;;;;;;;12.73;5.50;;;;;;;15.07;46.68;99151.97;5092037;28;20405;-46
2023/04/16 10:35:49;;;;;;;18.10;5.68;;;;;;;14.94;47.81;99156.34;5091777;28;20028;-46
2023/04/16 10:38:22;;;;;;;21.88;7.22;;;;;;;14.95;48.00;99155.34;5091760;28;20039;-47
2023/04/16 10:40:48;;;;;;;25.88;5.80;;;;;;;15.03;47.75;99148.13;5091640;28;20032;-46
2023/04/16 10:43:18;;;;;;;12.00;5.03;;;;;;;15.04;47.33;99145.28;5090474;28;20386;-46
2023/04/16 10:45:44;;;;;;;16.30;6.03;;;;;;;15.18;48.04;99148.59;5095180;28;20520;-46
2023/04/16 10:48:10;;;;;;;13.10;5.78;;;;;;;15.30;46.53;99136.28;5095720;28;20032;-46
2023/04/16 10:50:36;;;;;;;9.40;5.22;;;;;;;14.98;46.22;99139.03;5095637;28;20032;-46
2023/04/16 10:53:26;;;;;;;8.10;5.55;;;;;;;14.39;47.44;99146.38;5095813;28;20051;-46
2023/04/16 10:56:09;;;;;;;17.52;6.35;;;;;;;14.06;49.16;99159.78;5095874;28;20028;-46
2023/04/16 10:58:35;;;;;;;6.20;5.25;;;;;;;14.12;48.93;99156.28;5095573;28;20526;-46
2023/04/16 11:01:11;;;;;;;13.75;6.70;;;;;;;14.17;49.48;99148.56;5111141;28;20035;-47
2023/04/16 11:03:40;;;;;;;10.02;6.00;;;;;;;14.28;49.10;99148.91;5111114;28;20089;-46
2023/04/16 11:06:17;;;;;;;8.07;5.38;;;;;;;14.13;48.52;99155.28;5111001;28;20568;-46
2023/04/16 11:08:46;;;;;;;9.70;5.72;;;;;;;13.93;49.36;99151.94;5111088;28;20036;-46
2023/04/16 11:11:12;;;;;;;12.60;6.43;;;;;;;13.73;49.67;99152.81;5094098;28;20031;-47
2023/04/16 11:13:43;;;;;;;11.70;5.95;;;;;;;13.53;50.97;99144.97;5094019;28;20082;-46
2023/04/16 11:16:10;;;;;;;9.50;5.55;;;;;;;13.59;50.53;99146.78;5095459;28;20501;-46
2023/04/16 11:18:37;;;;;;;9.20;6.00;;;;;;;13.50;50.46;99163.88;5095112;28;20048;-46
2023/04/16 11:21:08;;;;;;;9.73;6.75;;;;;;;13.35;51.03;99161.47;5110731;28;20024;-45
2023/04/16 11:23:54;;;;;;;11.55;6.55;;;;;;;13.38;51.57;99157.59;5095098;28;20080;-46
2023/04/16 11:26:24;;;;;;;12.13;7.00;;;;;;;13.57;51.50;99146.19;5093584;28;20504;-47